LIL weather

Lille-Lesquin Airport
Lille/Lesquin, Nord-Pas-de-Calais, France

Public forecast

Using degrees Celsius for public forecast. Weather courtesy of forecast.io.

METAR (pilot weather report)

Retrieved 2019/05/25 04:30 UTC (0 seconds ago):

LFQQ 250430Z AUTO 00000KT CAVOK 11/09 Q1017 TEMPO 4000 SHRA BKN040CB

TAF (pilot weather forecast)

Forecast is more than 12 hours old.

Retrieved 2019/05/24 00:21 UTC (1 day ago):

TAF LFQQ 242300Z 2500/2606 34008KT CAVOK PROB30 TEMPO 2502/2511 4000 SHRA BKN040CB TEMPO 2511/2518 4000 SHRA BKN040CB BECMG 2603/2606 24010KT